sensor_id;sensor_type;location;lat;lon;timestamp;pressure;altitude;pressure_sealevel;temperature;humidity
65394;BME280;52002;49.760;6.512;2023-03-15T00:01:18;99784.60;;;20.18;49.24
65394;BME280;52002;49.760;6.512;2023-03-15T00:03:44;99788.52;;;20.17;49.33
65394;BME280;52002;49.760;6.512;2023-03-15T00:06:11;99787.65;;;20.17;49.60
65394;BME280;52002;49.760;6.512;2023-03-15T00:08:36;99792.35;;;20.16;49.58
65394;BME280;52002;49.760;6.512;2023-03-15T00:11:02;99789.46;;;20.16;49.33
65394;BME280;52002;49.760;6.512;2023-03-15T00:13:28;99793.52;;;20.16;49.27
65394;BME280;52002;49.760;6.512;2023-03-15T00:15:56;99798.73;;;20.15;49.22
65394;BME280;52002;49.760;6.512;2023-03-15T00:18:23;99802.05;;;20.16;49.35
65394;BME280;52002;49.760;6.512;2023-03-15T00:20:49;99809.69;;;20.15;49.37
65394;BME280;52002;49.760;6.512;2023-03-15T00:23:15;99816.38;;;20.13;49.35
65394;BME280;52002;49.760;6.512;2023-03-15T00:25:45;99821.09;;;20.13;49.43
65394;BME280;52002;49.760;6.512;2023-03-15T00:28:11;99819.95;;;20.12;49.39
65394;BME280;52002;49.760;6.512;2023-03-15T00:30:37;99828.05;;;20.13;49.53
65394;BME280;52002;49.760;6.512;2023-03-15T00:33:02;99828.99;;;20.13;49.48
65394;BME280;52002;49.760;6.512;2023-03-15T00:35:31;99826.00;;;20.14;49.80
65394;BME280;52002;49.760;6.512;2023-03-15T00:38:00;99821.79;;;20.17;49.99
65394;BME280;52002;49.760;6.512;2023-03-15T00:40:25;99822.16;;;20.18;50.13
65394;BME280;52002;49.760;6.512;2023-03-15T00:42:51;99820.04;;;20.16;49.27
65394;BME280;52002;49.760;6.512;2023-03-15T00:45:20;99824.70;;;20.11;47.67
65394;BME280;52002;49.760;6.512;2023-03-15T00:47:50;99823.60;;;20.07;46.85
65394;BME280;52002;49.760;6.512;2023-03-15T00:50:34;99828.70;;;20.03;46.42
65394;BME280;52002;49.760;6.512;2023-03-15T00:52:59;99832.42;;;20.02;46.96
65394;BME280;52002;49.760;6.512;2023-03-15T00:55:24;99829.87;;;20.01;47.04
65394;BME280;52002;49.760;6.512;2023-03-15T00:57:51;99836.09;;;20.03;47.36
65394;BME280;52002;49.760;6.512;2023-03-15T01:00:19;99832.60;;;20.05;47.77
65394;BME280;52002;49.760;6.512;2023-03-15T01:02:45;99835.31;;;20.06;48.04
65394;BME280;52002;49.760;6.512;2023-03-15T01:05:11;99835.48;;;20.05;48.46
65394;BME280;52002;49.760;6.512;2023-03-15T01:07:37;99842.23;;;20.08;48.54
65394;BME280;52002;49.760;6.512;2023-03-15T01:10:04;99840.19;;;20.09;48.59
65394;BME280;52002;49.760;6.512;2023-03-15T01:12:31;99841.95;;;20.09;48.69
65394;BME280;52002;49.760;6.512;2023-03-15T01:14:58;99848.91;;;20.10;48.81
65394;BME280;52002;49.760;6.512;2023-03-15T01:17:24;99848.30;;;20.10;48.95
65394;BME280;52002;49.760;6.512;2023-03-15T01:19:49;99847.55;;;20.11;49.00
65394;BME280;52002;49.760;6.512;2023-03-15T01:22:16;99852.55;;;20.11;49.06
65394;BME280;52002;49.760;6.512;2023-03-15T01:24:42;99855.05;;;20.11;49.12
65394;BME280;52002;49.760;6.512;2023-03-15T01:27:08;99860.44;;;20.11;49.10
65394;BME280;52002;49.760;6.512;2023-03-15T01:29:33;99860.11;;;20.13;49.06
65394;BME280;52002;49.760;6.512;2023-03-15T01:31:59;99863.40;;;20.14;49.06
65394;BME280;52002;49.760;6.512;2023-03-15T01:34:24;99862.81;;;20.13;49.11
65394;BME280;52002;49.760;6.512;2023-03-15T01:36:50;99858.45;;;20.13;49.08
65394;BME280;52002;49.760;6.512;2023-03-15T01:39:19;99864.52;;;20.14;49.18
65394;BME280;52002;49.760;6.512;2023-03-15T01:41:44;99865.70;;;20.13;49.26
65394;BME280;52002;49.760;6.512;2023-03-15T01:44:14;99866.56;;;20.13;49.20
65394;BME280;52002;49.760;6.512;2023-03-15T01:46:40;99867.73;;;20.12;49.31
65394;BME280;52002;49.760;6.512;2023-03-15T01:49:12;99870.66;;;20.12;49.25
65394;BME280;52002;49.760;6.512;2023-03-15T01:51:51;99869.73;;;20.12;49.29
65394;BME280;52002;49.760;6.512;2023-03-15T01:54:31;99870.53;;;20.13;49.22
65394;BME280;52002;49.760;6.512;2023-03-15T01:59:57;99868.83;;;20.14;49.21
65394;BME280;52002;49.760;6.512;2023-03-15T02:02:24;99863.24;;;20.13;49.25
65394;BME280;52002;49.760;6.512;2023-03-15T02:05:06;99864.56;;;20.13;49.24
65394;BME280;52002;49.760;6.512;2023-03-15T02:07:36;99873.91;;;20.14;49.33
65394;BME280;52002;49.760;6.512;2023-03-15T02:10:06;99874.70;;;20.13;49.36
65394;BME280;52002;49.760;6.512;2023-03-15T02:12:35;99879.58;;;20.13;49.37
65394;BME280;52002;49.760;6.512;2023-03-15T02:15:04;99878.98;;;20.13;49.34
65394;BME280;52002;49.760;6.512;2023-03-15T02:17:41;99880.38;;;20.14;49.31
65394;BME280;52002;49.760;6.512;2023-03-15T02:20:29;99879.41;;;20.14;49.31
65394;BME280;52002;49.760;6.512;2023-03-15T02:23:13;99876.57;;;20.15;49.29
65394;BME280;52002;49.760;6.512;2023-03-15T02:28:11;99862.60;;;20.14;49.18
65394;BME280;52002;49.760;6.512;2023-03-15T02:30:37;99867.49;;;20.14;49.26
65394;BME280;52002;49.760;6.512;2023-03-15T02:33:06;99870.70;;;20.13;49.18
65394;BME280;52002;49.760;6.512;2023-03-15T02:35:33;99865.15;;;20.13;49.26
65394;BME280;52002;49.760;6.512;2023-03-15T02:37:58;99872.02;;;20.13;49.32
65394;BME280;52002;49.760;6.512;2023-03-15T02:40:25;99871.52;;;20.12;49.32
65394;BME280;52002;49.760;6.512;2023-03-15T02:42:55;99873.85;;;20.13;49.21
65394;BME280;52002;49.760;6.512;2023-03-15T02:45:22;99872.52;;;20.13;49.33
65394;BME280;52002;49.760;6.512;2023-03-15T02:47:49;99868.37;;;20.13;49.30
65394;BME280;52002;49.760;6.512;2023-03-15T02:50:15;99866.95;;;20.13;49.25
65394;BME280;52002;49.760;6.512;2023-03-15T02:52:41;99869.58;;;20.13;49.27
65394;BME280;52002;49.760;6.512;2023-03-15T02:55:07;99865.20;;;20.12;49.36
65394;BME280;52002;49.760;6.512;2023-03-15T02:57:33;99863.15;;;20.13;49.34
65394;BME280;52002;49.760;6.512;2023-03-15T02:59:58;99857.65;;;20.12;49.31
65394;BME280;52002;49.760;6.512;2023-03-15T03:02:31;99864.27;;;20.11;49.29
65394;BME280;52002;49.760;6.512;2023-03-15T03:04:56;99867.44;;;20.12;49.28
65394;BME280;52002;49.760;6.512;2023-03-15T03:07:21;99864.78;;;20.11;49.35
65394;BME280;52002;49.760;6.512;2023-03-15T03:09:47;99866.10;;;20.12;49.25
65394;BME280;52002;49.760;6.512;2023-03-15T03:12:12;99864.69;;;20.12;49.32
65394;BME280;52002;49.760;6.512;2023-03-15T03:14:38;99867.82;;;20.13;49.36
65394;BME280;52002;49.760;6.512;2023-03-15T03:17:03;99867.66;;;20.13;49.34
65394;BME280;52002;49.760;6.512;2023-03-15T03:19:29;99863.85;;;20.13;49.39
65394;BME280;52002;49.760;6.512;2023-03-15T03:21:54;99861.30;;;20.13;49.30
65394;BME280;52002;49.760;6.512;2023-03-15T03:24:21;99863.31;;;20.13;49.24
65394;BME280;52002;49.760;6.512;2023-03-15T03:26:46;99862.44;;;20.13;49.32
65394;BME280;52002;49.760;6.512;2023-03-15T03:29:12;99864.36;;;20.12;49.34
65394;BME280;52002;49.760;6.512;2023-03-15T03:31:41;99865.77;;;20.12;49.39
65394;BME280;52002;49.760;6.512;2023-03-15T03:34:06;99864.11;;;20.12;49.30
65394;BME280;52002;49.760;6.512;2023-03-15T03:36:34;99863.12;;;20.13;49.26
65394;BME280;52002;49.760;6.512;2023-03-15T03:38:59;99866.70;;;20.13;49.31
65394;BME280;52002;49.760;6.512;2023-03-15T03:41:26;99864.41;;;20.13;49.35
65394;BME280;52002;49.760;6.512;2023-03-15T03:43:51;99867.66;;;20.13;49.31
65394;BME280;52002;49.760;6.512;2023-03-15T03:46:17;99877.28;;;20.12;49.35
65394;BME280;52002;49.760;6.512;2023-03-15T03:48:43;99886.00;;;20.12;49.45
65394;BME280;52002;49.760;6.512;2023-03-15T03:51:08;99886.23;;;20.12;49.40
65394;BME280;52002;49.760;6.512;2023-03-15T03:53:34;99888.48;;;20.11;49.45
65394;BME280;52002;49.760;6.512;2023-03-15T03:55:59;99899.20;;;20.11;49.45
65394;BME280;52002;49.760;6.512;2023-03-15T03:58:28;99905.88;;;20.11;49.34
65394;BME280;52002;49.760;6.512;2023-03-15T04:00:53;99906.17;;;20.11;49.46
65394;BME280;52002;49.760;6.512;2023-03-15T04:03:19;99906.50;;;20.12;49.40
65394;BME280;52002;49.760;6.512;2023-03-15T04:05:58;99901.58;;;20.12;49.43
65394;BME280;52002;49.760;6.512;2023-03-15T04:08:25;99908.68;;;20.13;49.53
65394;BME280;52002;49.760;6.512;2023-03-15T04:10:55;99900.09;;;20.12;49.35
65394;BME280;52002;49.760;6.512;2023-03-15T04:13:22;99901.83;;;20.11;49.39
65394;BME280;52002;49.760;6.512;2023-03-15T04:15:48;99910.30;;;20.12;49.34
65394;BME280;52002;49.760;6.512;2023-03-15T04:18:14;99915.55;;;20.11;49.48
65394;BME280;52002;49.760;6.512;2023-03-15T04:20:40;99910.88;;;20.11;49.41
65394;BME280;52002;49.760;6.512;2023-03-15T04:23:11;99915.63;;;20.11;49.41
65394;BME280;52002;49.760;6.512;2023-03-15T04:25:37;99922.80;;;20.11;49.46
65394;BME280;52002;49.760;6.512;2023-03-15T04:28:02;99930.31;;;20.12;49.41
65394;BME280;52002;49.760;6.512;2023-03-15T04:30:29;99934.77;;;20.12;49.33
65394;BME280;52002;49.760;6.512;2023-03-15T04:32:55;99931.06;;;20.12;49.38
65394;BME280;52002;49.760;6.512;2023-03-15T04:35:29;99934.69;;;20.11;49.45
65394;BME280;52002;49.760;6.512;2023-03-15T04:37:55;99935.11;;;20.11;49.40
65394;BME280;52002;49.760;6.512;2023-03-15T04:40:21;99936.90;;;20.11;49.40
65394;BME280;52002;49.760;6.512;2023-03-15T04:42:52;99939.64;;;20.11;49.40
65394;BME280;52002;49.760;6.512;2023-03-15T04:45:24;99940.98;;;20.10;49.41
65394;BME280;52002;49.760;6.512;2023-03-15T04:47:51;99944.27;;;20.09;49.49
65394;BME280;52002;49.760;6.512;2023-03-15T04:50:17;99950.73;;;20.10;49.43
65394;BME280;52002;49.760;6.512;2023-03-15T04:52:43;99954.95;;;20.11;49.32
65394;BME280;52002;49.760;6.512;2023-03-15T04:55:09;99957.77;;;20.10;49.38
65394;BME280;52002;49.760;6.512;2023-03-15T04:57:35;99957.41;;;20.12;49.37
65394;BME280;52002;49.760;6.512;2023-03-15T05:00:01;99957.41;;;20.12;49.39
65394;BME280;52002;49.760;6.512;2023-03-15T05:02:26;99957.77;;;20.12;49.41
65394;BME280;52002;49.760;6.512;2023-03-15T05:04:52;99955.31;;;20.10;49.44
65394;BME280;52002;49.760;6.512;2023-03-15T05:07:17;99950.60;;;20.10;49.44
65394;BME280;52002;49.760;6.512;2023-03-15T05:09:42;99950.42;;;20.10;49.46
65394;BME280;52002;49.760;6.512;2023-03-15T05:12:10;99954.02;;;20.10;49.46
65394;BME280;52002;49.760;6.512;2023-03-15T05:14:35;99951.52;;;20.10;49.44
65394;BME280;52002;49.760;6.512;2023-03-15T05:17:01;99947.73;;;20.10;49.35
65394;BME280;52002;49.760;6.512;2023-03-15T05:19:28;99942.30;;;20.10;49.37
65394;BME280;52002;49.760;6.512;2023-03-15T05:21:54;99939.89;;;20.10;49.41
65394;BME280;52002;49.760;6.512;2023-03-15T05:24:20;99941.80;;;20.10;49.44
65394;BME280;52002;49.760;6.512;2023-03-15T05:26:46;99939.89;;;20.10;49.53
65394;BME280;52002;49.760;6.512;2023-03-15T05:29:12;99937.17;;;20.11;49.58
65394;BME280;52002;49.760;6.512;2023-03-15T05:31:38;99936.71;;;20.10;49.59
65394;BME280;52002;49.760;6.512;2023-03-15T05:34:05;99941.05;;;20.10;49.48
65394;BME280;52002;49.760;6.512;2023-03-15T05:36:31;99942.76;;;20.09;49.51
65394;BME280;52002;49.760;6.512;2023-03-15T05:38:57;99945.71;;;20.09;49.56
65394;BME280;52002;49.760;6.512;2023-03-15T05:41:23;99953.38;;;20.08;49.56
65394;BME280;52002;49.760;6.512;2023-03-15T05:43:49;99954.01;;;20.09;49.51
65394;BME280;52002;49.760;6.512;2023-03-15T05:46:15;99953.84;;;20.09;49.51
65394;BME280;52002;49.760;6.512;2023-03-15T05:48:40;99958.23;;;20.10;49.55
65394;BME280;52002;49.760;6.512;2023-03-15T05:51:06;99958.73;;;20.10;49.61
65394;BME280;52002;49.760;6.512;2023-03-15T05:53:32;99964.94;;;20.10;49.61
65394;BME280;52002;49.760;6.512;2023-03-15T05:55:58;99967.32;;;20.09;49.51
65394;BME280;52002;49.760;6.512;2023-03-15T05:58:23;99969.45;;;20.10;49.60
65394;BME280;52002;49.760;6.512;2023-03-15T06:00:48;99970.65;;;20.09;49.62
65394;BME280;52002;49.760;6.512;2023-03-15T06:03:14;99965.44;;;20.08;49.57
65394;BME280;52002;49.760;6.512;2023-03-15T06:05:41;99967.14;;;20.08;49.62
65394;BME280;52002;49.760;6.512;2023-03-15T06:08:06;99965.85;;;20.08;49.57
65394;BME280;52002;49.760;6.512;2023-03-15T06:10:32;99965.48;;;20.08;49.59
65394;BME280;52002;49.760;6.512;2023-03-15T06:12:58;99967.94;;;20.09;49.55
65394;BME280;52002;49.760;6.512;2023-03-15T06:15:24;99970.65;;;20.09;49.54
65394;BME280;52002;49.760;6.512;2023-03-15T06:17:49;99970.81;;;20.09;49.54
65394;BME280;52002;49.760;6.512;2023-03-15T06:20:15;99971.11;;;20.09;49.58
65394;BME280;52002;49.760;6.512;2023-03-15T06:22:41;99974.11;;;20.08;49.52
65394;BME280;52002;49.760;6.512;2023-03-15T06:25:08;99979.52;;;20.08;49.49
65394;BME280;52002;49.760;6.512;2023-03-15T06:27:33;99985.07;;;20.08;49.53
65394;BME280;52002;49.760;6.512;2023-03-15T06:29:59;99984.77;;;20.07;49.57
65394;BME280;52002;49.760;6.512;2023-03-15T06:32:25;99984.52;;;20.08;49.55
65394;BME280;52002;49.760;6.512;2023-03-15T06:34:51;99989.02;;;20.08;49.46
65394;BME280;52002;49.760;6.512;2023-03-15T06:37:16;99989.69;;;20.08;49.53
65394;BME280;52002;49.760;6.512;2023-03-15T06:39:42;99989.28;;;20.09;49.60
65394;BME280;52002;49.760;6.512;2023-03-15T06:42:09;99986.49;;;20.09;49.54
65394;BME280;52002;49.760;6.512;2023-03-15T06:44:37;99989.04;;;20.09;49.58
65394;BME280;52002;49.760;6.512;2023-03-15T06:47:03;99989.11;;;20.08;49.50
65394;BME280;52002;49.760;6.512;2023-03-15T06:49:28;99993.88;;;20.09;49.54
65394;BME280;52002;49.760;6.512;2023-03-15T06:51:55;99991.63;;;20.09;49.55
65394;BME280;52002;49.760;6.512;2023-03-15T06:54:20;99993.69;;;20.08;49.53
65394;BME280;52002;49.760;6.512;2023-03-15T06:56:46;99994.29;;;20.09;49.52
65394;BME280;52002;49.760;6.512;2023-03-15T06:59:11;100001.41;;;20.08;49.61
65394;BME280;52002;49.760;6.512;2023-03-15T07:01:37;99999.05;;;20.10;49.58
65394;BME280;52002;49.760;6.512;2023-03-15T07:04:02;100000.18;;;20.09;49.61
65394;BME280;52002;49.760;6.512;2023-03-15T07:06:27;100005.63;;;20.09;49.55
65394;BME280;52002;49.760;6.512;2023-03-15T07:08:53;100007.34;;;20.10;49.57
65394;BME280;52002;49.760;6.512;2023-03-15T07:11:19;100013.10;;;20.10;49.39
65394;BME280;52002;49.760;6.512;2023-03-15T07:13:45;100021.59;;;20.09;49.15
65394;BME280;52002;49.760;6.512;2023-03-15T07:16:11;100022.08;;;20.08;48.86
65394;BME280;52002;49.760;6.512;2023-03-15T07:18:36;100025.52;;;20.06;48.74
65394;BME280;52002;49.760;6.512;2023-03-15T07:21:04;100033.91;;;19.34;46.12
65394;BME280;52002;49.760;6.512;2023-03-15T07:23:31;100036.12;;;18.34;44.47
65394;BME280;52002;49.760;6.512;2023-03-15T07:25:56;100028.52;;;17.47;43.12
65394;BME280;52002;49.760;6.512;2023-03-15T07:28:23;100031.42;;;16.48;42.13
65394;BME280;52002;49.760;6.512;2023-03-15T07:30:57;100034.63;;;15.65;41.88
65394;BME280;52002;49.760;6.512;2023-03-15T07:33:24;100037.10;;;15.01;42.09
65394;BME280;52002;49.760;6.512;2023-03-15T07:35:51;100032.55;;;15.21;42.53
65394;BME280;52002;49.760;6.512;2023-03-15T07:38:18;100032.64;;;15.65;42.64
65394;BME280;52002;49.760;6.512;2023-03-15T07:40:43;100038.88;;;16.07;42.68
65394;BME280;52002;49.760;6.512;2023-03-15T07:43:09;100038.48;;;16.42;42.75
65394;BME280;52002;49.760;6.512;2023-03-15T07:45:34;100041.83;;;16.75;42.79
65394;BME280;52002;49.760;6.512;2023-03-15T07:48:00;100048.05;;;17.06;42.92
65394;BME280;52002;49.760;6.512;2023-03-15T07:50:26;100050.98;;;17.33;43.09
65394;BME280;52002;49.760;6.512;2023-03-15T07:52:51;100054.14;;;17.56;43.49
65394;BME280;52002;49.760;6.512;2023-03-15T07:55:17;100057.59;;;17.75;43.60
65394;BME280;52002;49.760;6.512;2023-03-15T07:57:43;100064.67;;;17.95;43.40
65394;BME280;52002;49.760;6.512;2023-03-15T08:00:09;100074.73;;;18.12;43.42
65394;BME280;52002;49.760;6.512;2023-03-15T08:02:36;100074.43;;;18.26;43.58
65394;BME280;52002;49.760;6.512;2023-03-15T08:05:02;100082.17;;;18.40;43.70
65394;BME280;52002;49.760;6.512;2023-03-15T08:07:29;100088.06;;;18.52;43.78
65394;BME280;52002;49.760;6.512;2023-03-15T08:09:55;100088.38;;;18.63;43.78
65394;BME280;52002;49.760;6.512;2023-03-15T08:12:22;100089.63;;;18.73;43.85
65394;BME280;52002;49.760;6.512;2023-03-15T08:14:48;100097.33;;;18.80;43.89
65394;BME280;52002;49.760;6.512;2023-03-15T08:17:14;100100.65;;;18.88;43.67
65394;BME280;52002;49.760;6.512;2023-03-15T08:19:40;100103.20;;;18.98;43.48
65394;BME280;52002;49.760;6.512;2023-03-15T08:22:06;100106.05;;;19.04;43.69
65394;BME280;52002;49.760;6.512;2023-03-15T08:24:32;100111.09;;;19.11;43.79
65394;BME280;52002;49.760;6.512;2023-03-15T08:26:58;100111.70;;;19.16;44.26
65394;BME280;52002;49.760;6.512;2023-03-15T08:29:23;100121.09;;;19.25;44.17
65394;BME280;52002;49.760;6.512;2023-03-15T08:31:48;100126.94;;;19.31;43.99
65394;BME280;52002;49.760;6.512;2023-03-15T08:34:14;100129.23;;;19.35;43.94
65394;BME280;52002;49.760;6.512;2023-03-15T08:36:40;100134.19;;;19.39;43.97
65394;BME280;52002;49.760;6.512;2023-03-15T08:39:06;100136.60;;;19.43;43.97
65394;BME280;52002;49.760;6.512;2023-03-15T08:41:33;100141.59;;;19.46;44.07
65394;BME280;52002;49.760;6.512;2023-03-15T08:43:59;100140.64;;;19.48;44.00
65394;BME280;52002;49.760;6.512;2023-03-15T08:46:26;100143.73;;;19.51;44.11
65394;BME280;52002;49.760;6.512;2023-03-15T08:48:51;100145.35;;;19.55;44.17
65394;BME280;52002;49.760;6.512;2023-03-15T08:51:17;100141.08;;;19.58;44.13
65394;BME280;52002;49.760;6.512;2023-03-15T08:53:44;100143.48;;;19.60;44.28
65394;BME280;52002;49.760;6.512;2023-03-15T08:56:09;100147.48;;;19.63;44.33
65394;BME280;52002;49.760;6.512;2023-03-15T08:58:34;100148.23;;;19.65;44.45
65394;BME280;52002;49.760;6.512;2023-03-15T09:01:00;100153.00;;;19.66;44.47
65394;BME280;52002;49.760;6.512;2023-03-15T09:03:26;100156.90;;;19.68;44.46
65394;BME280;52002;49.760;6.512;2023-03-15T09:05:58;100158.45;;;19.69;44.74
65394;BME280;52002;49.760;6.512;2023-03-15T09:08:25;100163.51;;;19.70;44.81
65394;BME280;52002;49.760;6.512;2023-03-15T09:10:55;100170.81;;;19.73;44.83
65394;BME280;52002;49.760;6.512;2023-03-15T09:13:20;100170.36;;;19.73;44.90
65394;BME280;52002;49.760;6.512;2023-03-15T09:15:49;100185.64;;;19.75;44.95
65394;BME280;52002;49.760;6.512;2023-03-15T09:18:16;100189.45;;;19.77;44.99
65394;BME280;52002;49.760;6.512;2023-03-15T09:20:41;100195.05;;;19.78;45.16
65394;BME280;52002;49.760;6.512;2023-03-15T09:23:06;100191.68;;;19.79;45.21
65394;BME280;52002;49.760;6.512;2023-03-15T09:25:32;100191.90;;;19.80;45.26
65394;BME280;52002;49.760;6.512;2023-03-15T09:27:58;100190.90;;;19.81;45.32
65394;BME280;52002;49.760;6.512;2023-03-15T09:30:23;100189.94;;;19.81;45.34
65394;BME280;52002;49.760;6.512;2023-03-15T09:32:49;100185.45;;;19.82;45.54
65394;BME280;52002;49.760;6.512;2023-03-15T09:35:17;100188.80;;;19.84;45.55
65394;BME280;52002;49.760;6.512;2023-03-15T09:37:44;100189.98;;;19.85;45.65
65394;BME280;52002;49.760;6.512;2023-03-15T09:40:34;100185.41;;;19.86;45.62
65394;BME280;52002;49.760;6.512;2023-03-15T09:48:23;100193.46;;;19.89;45.63
65394;BME280;52002;49.760;6.512;2023-03-15T09:53:59;100204.17;;;19.88;45.62
65394;BME280;52002;49.760;6.512;2023-03-15T09:56:38;100217.67;;;19.88;45.75
65394;BME280;52002;49.760;6.512;2023-03-15T09:59:05;100210.40;;;19.89;45.78
65394;BME280;52002;49.760;6.512;2023-03-15T10:01:36;100212.55;;;19.89;45.71
65394;BME280;52002;49.760;6.512;2023-03-15T10:04:15;100213.29;;;19.90;45.75
65394;BME280;52002;49.760;6.512;2023-03-15T10:06:48;100207.85;;;19.90;45.79
65394;BME280;52002;49.760;6.512;2023-03-15T10:09:20;100214.28;;;19.91;45.84
65394;BME280;52002;49.760;6.512;2023-03-15T10:11:48;100208.88;;;19.91;45.85
65394;BME280;52002;49.760;6.512;2023-03-15T10:16:53;100211.51;;;19.92;45.81
65394;BME280;52002;49.760;6.512;2023-03-15T10:19:39;100210.25;;;19.91;45.93
65394;BME280;52002;49.760;6.512;2023-03-15T10:24:52;100203.40;;;19.91;45.99
65394;BME280;52002;49.760;6.512;2023-03-15T10:27:44;100200.13;;;19.91;46.13
65394;BME280;52002;49.760;6.512;2023-03-15T10:30:34;100203.01;;;19.92;46.16
65394;BME280;52002;49.760;6.512;2023-03-15T10:33:12;100205.00;;;19.91;46.24
65394;BME280;52002;49.760;6.512;2023-03-15T10:35:38;100205.30;;;19.92;46.20
65394;BME280;52002;49.760;6.512;2023-03-15T10:38:13;100207.60;;;19.92;46.12
65394;BME280;52002;49.760;6.512;2023-03-15T10:40:42;100202.98;;;19.93;46.14
65394;BME280;52002;49.760;6.512;2023-03-15T10:43:16;100199.66;;;19.94;46.26
65394;BME280;52002;49.760;6.512;2023-03-15T10:45:46;100203.23;;;19.94;46.29
65394;BME280;52002;49.760;6.512;2023-03-15T10:48:12;100204.19;;;19.94;46.30
65394;BME280;52002;49.760;6.512;2023-03-15T10:50:38;100200.09;;;19.93;46.41
65394;BME280;52002;49.760;6.512;2023-03-15T10:53:17;100191.98;;;19.93;46.40
65394;BME280;52002;49.760;6.512;2023-03-15T10:55:45;100193.05;;;19.93;46.48
65394;BME280;52002;49.760;6.512;2023-03-15T11:00:50;100192.73;;;19.94;46.34
65394;BME280;52002;49.760;6.512;2023-03-15T11:03:19;100193.27;;;19.94;46.39
65394;BME280;52002;49.760;6.512;2023-03-15T11:05:53;100199.20;;;19.94;46.36
65394;BME280;52002;49.760;6.512;2023-03-15T11:08:22;100200.24;;;19.95;46.34
65394;BME280;52002;49.760;6.512;2023-03-15T11:10:58;100197.16;;;19.95;46.37
65394;BME280;52002;49.760;6.512;2023-03-15T11:13:38;100200.65;;;19.94;46.50
65394;BME280;52002;49.760;6.512;2023-03-15T11:18:58;100206.41;;;19.95;46.56
65394;BME280;52002;49.760;6.512;2023-03-15T11:21:29;100203.57;;;19.94;46.49
65394;BME280;52002;49.760;6.512;2023-03-15T11:23:58;100207.53;;;19.94;46.64
65394;BME280;52002;49.760;6.512;2023-03-15T11:26:26;100211.36;;;19.94;46.75
65394;BME280;52002;49.760;6.512;2023-03-15T11:29:20;100214.00;;;19.95;46.68
65394;BME280;52002;49.760;6.512;2023-03-15T11:31:46;100216.87;;;19.95;46.72
65394;BME280;52002;49.760;6.512;2023-03-15T11:37:10;100221.17;;;19.95;46.69
65394;BME280;52002;49.760;6.512;2023-03-15T11:39:43;100227.58;;;19.96;46.74
65394;BME280;52002;49.760;6.512;2023-03-15T11:42:18;100229.66;;;19.97;46.72
65394;BME280;52002;49.760;6.512;2023-03-15T11:44:46;100226.76;;;19.95;46.85
65394;BME280;52002;49.760;6.512;2023-03-15T11:47:25;100229.84;;;19.95;46.80
65394;BME280;52002;49.760;6.512;2023-03-15T11:49:55;100234.60;;;19.96;46.94
65394;BME280;52002;49.760;6.512;2023-03-15T11:52:24;100237.10;;;19.96;46.84
65394;BME280;52002;49.760;6.512;2023-03-15T11:54:54;100239.64;;;19.96;46.93
65394;BME280;52002;49.760;6.512;2023-03-15T11:59:54;100242.63;;;19.97;46.87
65394;BME280;52002;49.760;6.512;2023-03-15T12:04:55;100247.27;;;19.97;47.02
65394;BME280;52002;49.760;6.512;2023-03-15T12:09:53;100253.34;;;19.98;46.95
65394;BME280;52002;49.760;6.512;2023-03-15T12:15:39;100252.70;;;19.96;47.02
65394;BME280;52002;49.760;6.512;2023-03-15T12:18:02;100247.55;;;19.95;47.17
65394;BME280;52002;49.760;6.512;2023-03-15T12:25:38;100239.56;;;19.95;47.18
65394;BME280;52002;49.760;6.512;2023-03-15T12:28:16;100236.57;;;19.96;47.11
65394;BME280;52002;49.760;6.512;2023-03-15T12:30:44;100236.45;;;19.97;47.06
65394;BME280;52002;49.760;6.512;2023-03-15T12:33:20;100229.41;;;19.97;47.04
65394;BME280;52002;49.760;6.512;2023-03-15T12:35:47;100228.64;;;19.96;47.09
65394;BME280;52002;49.760;6.512;2023-03-15T12:38:21;100232.02;;;19.96;46.98
65394;BME280;52002;49.760;6.512;2023-03-15T12:40:55;100227.80;;;19.91;46.23
65394;BME280;52002;49.760;6.512;2023-03-15T12:43:45;100224.67;;;19.83;44.62
65394;BME280;52002;49.760;6.512;2023-03-15T12:49:27;100220.92;;;19.78;44.95
65394;BME280;52002;49.760;6.512;2023-03-15T12:51:55;100224.64;;;19.78;45.01
65394;BME280;52002;49.760;6.512;2023-03-15T12:54:24;100222.95;;;19.79;45.38
65394;BME280;52002;49.760;6.512;2023-03-15T12:57:02;100224.02;;;19.80;45.53
65394;BME280;52002;49.760;6.512;2023-03-15T13:02:35;100222.55;;;19.83;45.83
65394;BME280;52002;49.760;6.512;2023-03-15T13:05:16;100218.52;;;19.84;45.88
65394;BME280;52002;49.760;6.512;2023-03-15T13:08:36;100215.66;;;19.85;45.74
65394;BME280;52002;49.760;6.512;2023-03-15T13:16:52;100209.70;;;19.85;45.72
65394;BME280;52002;49.760;6.512;2023-03-15T13:19:25;100198.23;;;19.84;45.62
65394;BME280;52002;49.760;6.512;2023-03-15T13:35:42;100193.30;;;19.88;45.51
65394;BME280;52002;49.760;6.512;2023-03-15T13:38:26;100188.02;;;19.89;45.42
65394;BME280;52002;49.760;6.512;2023-03-15T13:40:53;100191.09;;;19.89;45.54
65394;BME280;52002;49.760;6.512;2023-03-15T13:43:19;100192.41;;;19.88;45.43
65394;BME280;52002;49.760;6.512;2023-03-15T13:45:44;100191.45;;;19.87;45.41
65394;BME280;52002;49.760;6.512;2023-03-15T13:48:11;100188.80;;;19.88;45.52
65394;BME280;52002;49.760;6.512;2023-03-15T13:50:37;100188.17;;;19.89;45.39
65394;BME280;52002;49.760;6.512;2023-03-15T13:53:03;100189.06;;;19.90;45.53
65394;BME280;52002;49.760;6.512;2023-03-15T13:55:33;100188.86;;;19.91;45.44
65394;BME280;52002;49.760;6.512;2023-03-15T13:58:05;100187.45;;;19.92;45.42
65394;BME280;52002;49.760;6.512;2023-03-15T14:00:31;100186.20;;;19.93;45.46
65394;BME280;52002;49.760;6.512;2023-03-15T14:03:02;100190.30;;;19.92;45.52
65394;BME280;52002;49.760;6.512;2023-03-15T14:05:31;100190.59;;;19.93;45.50
65394;BME280;52002;49.760;6.512;2023-03-15T14:08:03;100195.67;;;19.92;45.46
65394;BME280;52002;49.760;6.512;2023-03-15T14:10:34;100193.91;;;19.92;45.49